KKLS

Details ICAO KKLS (KLS)
Name KELSO LONGVIEW
Region United States
Timezone America/Los_Angeles (UTC-7.0)
Plans Departing 7
Arriving 8
Stats Elevation 20 ft / 6 m (AMSL)
Location 46.118009° -122.898374°
Runways 1
Magnetic Variation 15.413° E
Sunrise 2018-05-20 12:34:53 UTC / 2018-05-20 05:34:53 Local
Sunset 2018-05-21 03:44:15 UTC / 2018-05-20 20:44:15 Local
Advertisement - Login to hide

Runways

ID Width Length Bearing (true) Bearing (mag) Surface Threshold Offset Overrun Length
12 100 ft / 30 m 4,387 ft / 1,337 m 140.43° 125.02° Asphalt 0 ft / 0 m 0 ft / 0 m
30 100 ft / 30 m 4,387 ft / 1,337 m 320.44° 305.03° Asphalt 0 ft / 0 m 0 ft / 0 m

Map

Weather


0- 5 10 15 20 25 30 35+ Temperature / ° C

Clouds and Precipitation
Forecast for 2018-05-21 00:00 UTC. Updated 2 minutes ago

Ground ~20,000 ft ~40,000 ft Winds

METAR

KKLS 202156Z AUTO VRB04KT 10SM CLR 19/09 A3004 RMK AO2 SLP177 T01940089

TAF

Not found

Frequencies

Recorded 135.07 MHz AWOS 3
Unicom 122.80 MHz CTAF/UNICOM
Warning: Do not use this data for real-world aviation or navigation. No guarantee of current accuracy is given.